Time;durP1;ratioP1;P1;durP2;ratioP2;P2;SDS_P1;SDS_P2;PMS_P1;PMS_P2;Temp;Humidity;BMP_temperature;BMP_pressure;BME280_temperature;BME280_humidity;BME280_pressure;Samples;Min_cycle;Max_cycle;Signal;HPM_P1;HPM_P2
2023/10/21 00:01:46;;;;;;;13.85;6.55;;;;;;;;;;6254806;28;20056;-70
2023/10/21 00:04:49;;;;;;;17.83;6.82;;;;;;;;;;6251638;28;20060;-69
2023/10/21 00:07:51;;;;;;;18.52;7.32;;;;;;;;;;6257566;28;20325;-70
2023/10/21 00:11:02;;;;;;;17.60;8.13;;;;;;;;;;6248961;28;20053;-69
2023/10/21 00:14:04;;;;;;;14.38;6.65;;;;;;;;;;6252914;28;20064;-70
2023/10/21 00:17:06;;;;;;;15.30;7.95;;;;;;;;;;6257426;28;20326;-69
2023/10/21 00:20:12;;;;;;;18.30;7.32;;;;;;;;;;6257592;28;20053;-70
2023/10/21 00:23:13;;;;;;;17.88;6.57;;;;;;;;;;6256958;28;20214;-69
2023/10/21 00:26:16;;;;;;;11.18;6.05;;;;;;;;;;6252440;28;20588;-71
2023/10/21 00:29:18;;;;;;;14.40;6.47;;;;;;;;;;6251357;28;20050;-70
2023/10/21 00:32:19;;;;;;;13.57;6.57;;;;;;;;;;6252806;28;20045;-69
2023/10/21 00:35:23;;;;;;;16.13;6.88;;;;;;;;;;6254700;28;20053;-69
2023/10/21 00:38:24;;;;;;;17.80;6.95;;;;;;;;;;6258121;28;20345;-70
2023/10/21 00:41:26;;;;;;;14.73;6.93;;;;;;;;;;6251326;28;20326;-69
2023/10/21 00:44:29;;;;;;;17.50;6.47;;;;;;;;;;6248997;28;20133;-70
2023/10/21 00:47:32;;;;;;;13.13;5.65;;;;;;;;;;6248834;28;20048;-70
2023/10/21 00:50:35;;;;;;;17.33;6.03;;;;;;;;;;6249448;28;20593;-71
2023/10/21 00:53:37;;;;;;;16.43;6.13;;;;;;;;;;6256063;28;20346;-69
2023/10/21 00:56:39;;;;;;;13.38;5.60;;;;;;;;;;6251214;28;20460;-72
2023/10/21 00:59:43;;;;;;;12.80;5.65;;;;;;;;;;6255520;28;20046;-69
2023/10/21 01:02:45;;;;;;;11.57;6.22;;;;;;;;;;6241471;28;20334;-70
2023/10/21 01:05:48;;;;;;;12.27;6.13;;;;;;;;;;6222586;28;20242;-69
2023/10/21 01:08:50;;;;;;;16.23;5.65;;;;;;;;;;6251080;28;20055;-69
2023/10/21 01:11:51;;;;;;;12.00;5.22;;;;;;;;;;6252295;28;20072;-69
2023/10/21 01:14:53;;;;;;;11.95;5.05;;;;;;;;;;6252933;28;20069;-70
2023/10/21 01:17:55;;;;;;;10.50;4.80;;;;;;;;;;6249131;28;20091;-70
2023/10/21 01:20:58;;;;;;;13.05;5.10;;;;;;;;;;6251298;28;20061;-69
2023/10/21 01:24:01;;;;;;;11.13;4.72;;;;;;;;;;6248137;28;20083;-70
2023/10/21 01:27:02;;;;;;;11.67;4.90;;;;;;;;;;6246538;28;20250;-69
2023/10/21 01:30:05;;;;;;;10.57;4.65;;;;;;;;;;6224709;28;20453;-69
2023/10/21 01:33:07;;;;;;;16.60;4.97;;;;;;;;;;6227516;28;20056;-70
2023/10/21 01:36:09;;;;;;;11.60;4.95;;;;;;;;;;6224449;28;20452;-69
2023/10/21 01:39:12;;;;;;;8.90;4.60;;;;;;;;;;6228211;28;20054;-69
2023/10/21 01:42:14;;;;;;;12.07;4.03;;;;;;;;;;6238375;28;20061;-67
2023/10/21 01:45:15;;;;;;;11.02;5.40;;;;;;;;;;6184656;28;1129887;-71
2023/10/21 01:48:17;;;;;;;11.23;4.15;;;;;;;;;;6229887;28;20054;-70
2023/10/21 01:51:19;;;;;;;12.20;6.03;;;;;;;;;;6232279;28;20061;-68
2023/10/21 01:54:22;;;;;;;14.35;5.05;;;;;;;;;;6228692;28;20088;-69
2023/10/21 01:57:23;;;;;;;6.83;3.90;;;;;;;;;;6230289;28;20046;-69
2023/10/21 02:00:25;;;;;;;12.93;4.28;;;;;;;;;;6229770;28;20069;-69
2023/10/21 02:03:27;;;;;;;8.40;4.20;;;;;;;;;;6229942;28;20057;-69
2023/10/21 02:06:29;;;;;;;11.40;5.13;;;;;;;;;;6225143;28;20109;-71
2023/10/21 02:09:32;;;;;;;10.15;4.03;;;;;;;;;;6226926;28;20345;-70
2023/10/21 02:12:33;;;;;;;10.87;3.93;;;;;;;;;;6232414;28;20277;-70
2023/10/21 02:15:36;;;;;;;8.43;3.40;;;;;;;;;;6236102;28;20054;-69
2023/10/21 02:18:37;;;;;;;10.18;4.20;;;;;;;;;;6238144;28;20099;-73
2023/10/21 02:21:39;;;;;;;9.48;3.83;;;;;;;;;;6245519;28;20057;-69
2023/10/21 02:24:42;;;;;;;8.77;3.50;;;;;;;;;;6240365;28;20099;-70
2023/10/21 02:27:44;;;;;;;8.63;3.13;;;;;;;;;;6237484;28;20286;-70
2023/10/21 02:30:45;;;;;;;12.07;3.85;;;;;;;;;;6227440;28;20354;-70
2023/10/21 02:33:47;;;;;;;10.25;3.20;;;;;;;;;;6243040;28;20060;-69
2023/10/21 02:36:49;;;;;;;13.20;2.85;;;;;;;;;;6233859;28;20131;-70
2023/10/21 02:39:52;;;;;;;7.90;2.92;;;;;;;;;;6253672;28;20109;-70
2023/10/21 02:42:54;;;;;;;10.10;2.63;;;;;;;;;;6227033;28;20061;-70
2023/10/21 02:45:55;;;;;;;6.03;2.30;;;;;;;;;;6229570;28;20270;-69
2023/10/21 02:48:58;;;;;;;8.18;3.20;;;;;;;;;;6224055;28;20057;-68
2023/10/21 02:52:01;;;;;;;7.38;3.63;;;;;;;;;;6228724;28;20382;-69
2023/10/21 02:55:05;;;;;;;8.60;2.50;;;;;;;;;;6230909;28;20395;-70
2023/10/21 02:58:06;;;;;;;6.28;2.85;;;;;;;;;;6229354;28;20050;-69
2023/10/21 03:01:14;;;;;;;6.95;2.80;;;;;;;;;;6234390;28;20060;-69
2023/10/21 03:04:16;;;;;;;5.95;2.75;;;;;;;;;;6226610;28;20073;-71
2023/10/21 03:07:18;;;;;;;9.80;3.00;;;;;;;;;;6227197;28;20046;-69
2023/10/21 03:10:22;;;;;;;7.68;2.22;;;;;;;;;;6231124;28;20050;-70
2023/10/21 03:13:24;;;;;;;7.47;2.60;;;;;;;;;;6224807;28;20058;-70
2023/10/21 03:16:26;;;;;;;7.78;2.60;;;;;;;;;;6229003;28;20068;-69
2023/10/21 03:19:28;;;;;;;6.97;2.33;;;;;;;;;;6231837;28;20123;-69
2023/10/21 03:22:29;;;;;;;6.97;2.22;;;;;;;;;;6221139;28;20068;-70
2023/10/21 03:25:33;;;;;;;12.45;2.50;;;;;;;;;;6226941;28;20053;-71
2023/10/21 03:28:36;;;;;;;7.38;2.75;;;;;;;;;;6224959;28;20058;-72
2023/10/21 03:31:38;;;;;;;7.18;2.42;;;;;;;;;;6219690;28;20359;-70
2023/10/21 03:34:40;;;;;;;10.07;3.17;;;;;;;;;;6237155;28;20103;-70
2023/10/21 03:37:42;;;;;;;7.43;2.60;;;;;;;;;;6228059;28;20095;-69
2023/10/21 03:40:45;;;;;;;8.70;2.53;;;;;;;;;;6223362;28;20091;-69
2023/10/21 03:43:48;;;;;;;7.18;2.03;;;;;;;;;;6233862;28;20093;-70
2023/10/21 03:46:50;;;;;;;7.75;2.72;;;;;;;;;;6228695;28;20096;-69
2023/10/21 03:49:52;;;;;;;6.47;2.17;;;;;;;;;;6231759;28;20234;-70
2023/10/21 03:52:54;;;;;;;5.15;1.90;;;;;;;;;;6245175;28;20060;-70
2023/10/21 03:55:58;;;;;;;11.63;3.20;;;;;;;;;;6240490;28;20056;-70
2023/10/21 03:59:00;;;;;;;5.90;1.95;;;;;;;;;;6265743;28;20052;-69
2023/10/21 04:02:02;;;;;;;6.47;2.53;;;;;;;;;;6226444;28;20046;-69
2023/10/21 04:05:08;;;;;;;6.43;1.90;;;;;;;;;;6224174;28;20104;-69
2023/10/21 04:08:09;;;;;;;6.43;2.03;;;;;;;;;;6225620;28;20050;-69
2023/10/21 04:11:13;;;;;;;8.02;2.78;;;;;;;;;;6227488;28;20049;-70
2023/10/21 04:14:15;;;;;;;;;;;;;;;;;;6241351;28;20118;-71
2023/10/21 04:17:22;;;;;;;7.82;2.08;;;;;;;;;;6231968;28;20202;-70
2023/10/21 04:20:24;;;;;;;5.57;2.35;;;;;;;;;;6222683;28;20090;-74
2023/10/21 04:23:26;;;;;;;5.95;2.08;;;;;;;;;;6224319;28;20049;-69
2023/10/21 04:26:29;;;;;;;5.75;2.10;;;;;;;;;;6229856;28;20053;-72
2023/10/21 04:29:33;;;;;;;5.93;1.95;;;;;;;;;;6222332;28;20068;-70
2023/10/21 04:32:35;;;;;;;5.80;2.13;;;;;;;;;;6231918;28;20246;-73
2023/10/21 04:35:36;;;;;;;6.25;2.05;;;;;;;;;;6230369;28;20070;-70
2023/10/21 04:38:40;;;;;;;5.35;2.00;;;;;;;;;;6226550;28;20061;-70
2023/10/21 04:41:43;;;;;;;4.97;2.15;;;;;;;;;;6227881;28;20048;-69
2023/10/21 04:44:45;;;;;;;7.45;2.65;;;;;;;;;;6242045;28;20049;-69
2023/10/21 04:47:48;;;;;;;8.13;2.17;;;;;;;;;;6249111;28;20080;-69
2023/10/21 04:50:49;;;;;;;8.32;2.55;;;;;;;;;;6249296;28;20222;-73
2023/10/21 04:53:51;;;;;;;6.38;2.65;;;;;;;;;;6255620;28;20099;-69
2023/10/21 04:56:54;;;;;;;9.10;1.95;;;;;;;;;;6250180;28;20524;-69
2023/10/21 04:59:56;;;;;;;7.70;2.38;;;;;;;;;;6247417;28;20113;-70
2023/10/21 05:02:57;;;;;;;4.63;2.33;;;;;;;;;;6248913;28;20061;-70
2023/10/21 05:05:59;;;;;;;6.13;2.58;;;;;;;;;;6243305;28;20061;-70
2023/10/21 05:09:02;;;;;;;5.68;2.15;;;;;;;;;;6244761;28;20061;-71
2023/10/21 05:12:06;;;;;;;9.73;2.50;;;;;;;;;;6257028;28;20108;-70
2023/10/21 05:15:09;;;;;;;8.85;2.10;;;;;;;;;;6244779;28;20061;-71
2023/10/21 05:18:11;;;;;;;4.70;2.38;;;;;;;;;;6253858;28;20087;-69
2023/10/21 05:21:14;;;;;;;6.40;2.00;;;;;;;;;;6250517;28;20049;-69
2023/10/21 05:24:15;;;;;;;5.28;1.85;;;;;;;;;;6255967;28;20343;-70
2023/10/21 05:27:18;;;;;;;6.60;2.22;;;;;;;;;;6254169;28;20049;-69
2023/10/21 05:30:20;;;;;;;6.83;2.17;;;;;;;;;;6257769;28;20061;-70
2023/10/21 05:33:22;;;;;;;5.97;2.30;;;;;;;;;;6251835;28;20069;-71
2023/10/21 05:36:24;;;;;;;3.88;2.03;;;;;;;;;;6246517;28;20053;-72
2023/10/21 05:39:25;;;;;;;7.13;2.53;;;;;;;;;;6251391;28;20053;-71
2023/10/21 05:42:28;;;;;;;6.50;2.47;;;;;;;;;;6254937;28;20345;-70
2023/10/21 05:45:30;;;;;;;7.30;2.50;;;;;;;;;;6244832;28;20335;-71
2023/10/21 05:48:32;;;;;;;4.20;2.00;;;;;;;;;;6230739;28;20053;-72
2023/10/21 05:51:33;;;;;;;5.43;2.15;;;;;;;;;;6244818;28;20215;-70
2023/10/21 05:54:35;;;;;;;7.28;2.42;;;;;;;;;;6246329;28;20053;-72
2023/10/21 05:57:38;;;;;;;6.32;2.78;;;;;;;;;;6241657;28;20057;-71
2023/10/21 06:00:40;;;;;;;6.93;3.03;;;;;;;;;;6242044;28;20046;-70
2023/10/21 06:03:42;;;;;;;5.40;2.38;;;;;;;;;;6227611;28;20070;-71
2023/10/21 06:06:44;;;;;;;4.38;1.85;;;;;;;;;;6231554;28;20061;-69
2023/10/21 06:09:45;;;;;;;6.47;2.25;;;;;;;;;;6239184;28;20540;-69
2023/10/21 06:12:48;;;;;;;7.68;2.17;;;;;;;;;;6249195;28;20096;-73
2023/10/21 06:15:50;;;;;;;8.67;2.60;;;;;;;;;;6250412;28;20084;-72
2023/10/21 06:18:53;;;;;;;5.65;2.30;;;;;;;;;;6255793;28;20061;-71
2023/10/21 06:21:55;;;;;;;6.60;2.58;;;;;;;;;;6249847;28;20115;-72
2023/10/21 06:24:56;;;;;;;5.68;2.25;;;;;;;;;;6254817;28;20096;-71
2023/10/21 06:28:00;;;;;;;6.32;2.20;;;;;;;;;;6250418;28;20069;-71
2023/10/21 06:31:02;;;;;;;8.30;1.88;;;;;;;;;;6257110;28;20989;-71
2023/10/21 06:34:05;;;;;;;8.95;2.85;;;;;;;;;;6246367;28;20333;-70
2023/10/21 06:37:07;;;;;;;7.43;2.30;;;;;;;;;;6247776;28;20058;-69
2023/10/21 06:40:09;;;;;;;4.72;2.08;;;;;;;;;;6249377;28;20574;-71
2023/10/21 06:43:12;;;;;;;10.10;3.00;;;;;;;;;;6250042;28;20108;-69
2023/10/21 06:46:14;;;;;;;7.27;2.80;;;;;;;;;;6252058;28;20115;-70
2023/10/21 06:49:16;;;;;;;7.88;2.50;;;;;;;;;;6252948;28;20053;-71
2023/10/21 06:52:20;;;;;;;7.30;2.80;;;;;;;;;;6248793;28;20061;-69
2023/10/21 06:55:21;;;;;;;10.57;3.40;;;;;;;;;;6249045;28;20053;-69
2023/10/21 06:58:26;;;;;;;5.75;3.13;;;;;;;;;;6250106;28;20376;-69
2023/10/21 07:01:28;;;;;;;10.48;2.85;;;;;;;;;;6252955;28;20045;-69
2023/10/21 07:04:30;;;;;;;8.00;3.25;;;;;;;;;;6249090;28;20053;-70
2023/10/21 07:07:32;;;;;;;8.75;3.33;;;;;;;;;;6254271;28;20061;-68
2023/10/21 07:10:34;;;;;;;6.47;3.00;;;;;;;;;;6250890;28;20060;-67
2023/10/21 07:13:38;;;;;;;12.27;3.17;;;;;;;;;;6249269;28;20068;-70
2023/10/21 07:16:40;;;;;;;7.97;3.63;;;;;;;;;;6253538;28;20053;-68
2023/10/21 07:19:41;;;;;;;7.60;3.75;;;;;;;;;;6253631;28;20046;-67
2023/10/21 07:22:44;;;;;;;11.45;3.95;;;;;;;;;;6250279;28;20045;-69
2023/10/21 07:25:46;;;;;;;8.00;3.42;;;;;;;;;;6249975;28;20311;-71
2023/10/21 07:28:49;;;;;;;6.65;3.85;;;;;;;;;;6251904;28;20061;-69
2023/10/21 07:31:51;;;;;;;6.75;4.00;;;;;;;;;;6246559;28;20045;-68
2023/10/21 07:34:54;;;;;;;13.48;4.00;;;;;;;;;;6249768;28;20128;-69
2023/10/21 07:37:56;;;;;;;9.23;3.72;;;;;;;;;;6250874;28;20037;-69
2023/10/21 07:40:58;;;;;;;9.90;3.85;;;;;;;;;;6254938;28;20075;-70
2023/10/21 07:44:01;;;;;;;68.03;7.68;;;;;;;;;;6246908;28;20073;-71
2023/10/21 07:47:04;;;;;;;9.07;4.03;;;;;;;;;;6252270;28;20045;-70
2023/10/21 07:50:07;;;;;;;9.15;3.65;;;;;;;;;;6249205;28;20056;-69
2023/10/21 07:53:08;;;;;;;10.65;3.92;;;;;;;;;;6248478;28;20088;-68
2023/10/21 07:56:10;;;;;;;8.80;4.25;;;;;;;;;;6252594;28;20059;-69
2023/10/21 07:59:14;;;;;;;14.43;4.93;;;;;;;;;;6252104;28;20054;-69
2023/10/21 08:02:16;;;;;;;10.85;5.25;;;;;;;;;;6246891;28;20096;-69
2023/10/21 08:05:18;;;;;;;10.20;5.78;;;;;;;;;;6250642;28;20379;-69
2023/10/21 08:08:19;;;;;;;9.35;5.70;;;;;;;;;;6246470;28;20116;-69
2023/10/21 08:11:22;;;;;;;10.93;5.53;;;;;;;;;;6247893;28;20050;-68
2023/10/21 08:14:30;;;;;;;10.95;5.93;;;;;;;;;;6253996;28;20054;-69
2023/10/21 08:17:31;;;;;;;10.52;6.32;;;;;;;;;;6231561;28;20049;-69
2023/10/21 08:20:33;;;;;;;11.80;5.63;;;;;;;;;;6230216;28;20054;-70
2023/10/21 08:23:35;;;;;;;13.98;6.50;;;;;;;;;;6225426;28;20064;-69
2023/10/21 08:26:37;;;;;;;12.15;6.88;;;;;;;;;;6227466;28;20073;-68
2023/10/21 08:29:41;;;;;;;13.77;6.45;;;;;;;;;;6228315;28;20045;-69
2023/10/21 08:32:44;;;;;;;11.00;6.30;;;;;;;;;;6244593;28;20322;-68
2023/10/21 08:35:46;;;;;;;16.02;6.75;;;;;;;;;;6254357;28;20053;-68
2023/10/21 08:38:48;;;;;;;11.68;6.35;;;;;;;;;;6242427;28;20184;-69
2023/10/21 08:41:50;;;;;;;13.65;6.65;;;;;;;;;;6249287;28;20092;-69
2023/10/21 08:44:54;;;;;;;16.58;6.90;;;;;;;;;;6247023;28;20061;-68
2023/10/21 08:47:57;;;;;;;14.32;6.78;;;;;;;;;;6229869;28;20041;-70
2023/10/21 08:51:00;;;;;;;11.68;7.10;;;;;;;;;;6239797;28;20046;-69
2023/10/21 08:54:03;;;;;;;18.15;7.60;;;;;;;;;;6258199;28;20064;-70
2023/10/21 08:57:05;;;;;;;14.95;7.72;;;;;;;;;;6257754;28;20048;-69
2023/10/21 09:00:10;;;;;;;12.45;6.57;;;;;;;;;;6255414;28;20211;-70
2023/10/21 09:03:13;;;;;;;13.90;8.38;;;;;;;;;;6258619;28;20065;-71
2023/10/21 09:06:17;;;;;;;12.73;7.37;;;;;;;;;;6252333;28;20049;-68
2023/10/21 09:09:22;;;;;;;15.00;8.18;;;;;;;;;;6255566;28;20751;-68
2023/10/21 09:12:24;;;;;;;12.15;7.38;;;;;;;;;;6253435;28;20049;-68
2023/10/21 09:15:37;;;;;;;16.20;7.97;;;;;;;;;;6254064;28;20060;-68
2023/10/21 09:18:38;;;;;;;13.23;7.93;;;;;;;;;;6251012;28;20411;-69
2023/10/21 09:21:42;;;;;;;16.15;8.45;;;;;;;;;;6251214;28;20055;-68
2023/10/21 09:24:43;;;;;;;15.60;7.32;;;;;;;;;;6254130;28;20123;-69
2023/10/21 09:27:46;;;;;;;12.50;7.03;;;;;;;;;;6249080;28;20049;-68
2023/10/21 09:30:57;;;;;;;14.90;6.78;;;;;;;;;;6254785;28;20234;-70
2023/10/21 09:33:59;;;;;;;14.48;8.13;;;;;;;;;;6250275;28;20073;-69
2023/10/21 09:37:02;;;;;;;14.50;7.65;;;;;;;;;;6250854;28;20049;-68
2023/10/21 09:40:06;;;;;;;14.45;7.95;;;;;;;;;;6255166;28;20045;-68
2023/10/21 09:43:09;;;;;;;11.80;6.80;;;;;;;;;;6237017;28;20223;-68
2023/10/21 09:46:13;;;;;;;12.07;5.88;;;;;;;;;;6226011;28;20057;-67
2023/10/21 09:49:16;;;;;;;12.10;6.85;;;;;;;;;;6231254;28;20046;-69
2023/10/21 09:52:21;;;;;;;9.88;5.95;;;;;;;;;;6224164;28;20094;-68
2023/10/21 09:55:25;;;;;;;10.88;5.85;;;;;;;;;;6227674;28;20049;-68
2023/10/21 09:58:27;;;;;;;7.78;4.90;;;;;;;;;;6225543;28;20331;-69
2023/10/21 10:01:31;;;;;;;11.63;5.53;;;;;;;;;;6230286;28;20053;-68
2023/10/21 10:04:33;;;;;;;11.32;5.60;;;;;;;;;;6229020;28;20058;-68
2023/10/21 10:07:36;;;;;;;9.02;6.10;;;;;;;;;;6227629;28;20061;-69
2023/10/21 10:10:39;;;;;;;13.25;5.90;;;;;;;;;;6228012;28;20053;-68
2023/10/21 10:13:46;;;;;;;9.73;6.60;;;;;;;;;;6233064;28;20143;-67
2023/10/21 10:16:49;;;;;;;12.10;6.47;;;;;;;;;;6226331;28;20062;-69
2023/10/21 10:19:52;;;;;;;13.55;6.13;;;;;;;;;;6227293;28;20053;-68
2023/10/21 10:22:58;;;;;;;11.30;7.40;;;;;;;;;;6226874;28;20060;-68
2023/10/21 10:26:02;;;;;;;15.07;8.27;;;;;;;;;;6224899;28;20091;-69
2023/10/21 10:29:25;;;;;;;15.90;7.22;;;;;;;;;;6226864;28;20077;-68
2023/10/21 10:32:31;;;;;;;14.57;7.85;;;;;;;;;;6228707;28;20100;-68
2023/10/21 10:35:34;;;;;;;15.13;8.25;;;;;;;;;;6225014;28;20064;-68
2023/10/21 10:38:44;;;;;;;10.63;7.90;;;;;;;;;;6226851;28;20065;-68
2023/10/21 10:41:49;;;;;;;16.23;9.07;;;;;;;;;;6250426;28;20318;-68
2023/10/21 10:44:51;;;;;;;16.98;8.77;;;;;;;;;;6220059;28;20101;-68
2023/10/21 10:48:00;;;;;;;15.90;9.15;;;;;;;;;;6230961;28;20823;-68
2023/10/21 10:51:10;;;;;;;11.52;9.15;;;;;;;;;;6219298;28;20112;-68
2023/10/21 10:54:17;;;;;;;14.80;8.25;;;;;;;;;;6227661;28;20090;-67
2023/10/21 10:57:18;;;;;;;20.45;8.57;;;;;;;;;;6226102;28;20046;-68
2023/10/21 11:00:25;;;;;;;14.63;9.02;;;;;;;;;;6224723;28;20057;-68
2023/10/21 11:03:31;;;;;;;14.05;6.88;;;;;;;;;;6226076;28;20052;-69
2023/10/21 11:06:36;;;;;;;10.15;5.60;;;;;;;;;;6225675;28;20046;-68
2023/10/21 11:09:38;;;;;;;10.98;6.25;;;;;;;;;;6224148;28;20152;-68
2023/10/21 11:12:40;;;;;;;10.13;6.22;;;;;;;;;;6229896;28;20050;-68
2023/10/21 11:15:44;;;;;;;9.63;6.20;;;;;;;;;;6224435;28;20057;-68
2023/10/21 11:18:47;;;;;;;12.30;6.22;;;;;;;;;;6229644;28;20057;-68
2023/10/21 11:21:49;;;;;;;11.23;5.65;;;;;;;;;;6228020;28;20055;-67
2023/10/21 11:24:51;;;;;;;13.07;5.80;;;;;;;;;;6243339;28;20096;-69
2023/10/21 11:27:53;;;;;;;14.15;7.45;;;;;;;;;;6226288;28;20089;-68
2023/10/21 11:30:56;;;;;;;10.60;7.05;;;;;;;;;;6224091;28;20120;-68
2023/10/21 11:34:09;;;;;;;13.47;7.70;;;;;;;;;;6226341;28;20050;-68
2023/10/21 11:37:11;;;;;;;9.43;6.28;;;;;;;;;;6227042;28;20216;-68
2023/10/21 11:40:15;;;;;;;12.20;7.55;;;;;;;;;;6222105;28;20050;-68
2023/10/21 11:43:18;;;;;;;13.63;8.07;;;;;;;;;;6224386;28;20058;-71
2023/10/21 11:46:21;;;;;;;14.98;8.20;;;;;;;;;;6228143;28;20046;-68
2023/10/21 11:49:26;;;;;;;12.70;8.80;;;;;;;;;;6234025;28;20076;-68
2023/10/21 11:52:28;;;;;;;12.32;7.53;;;;;;;;;;6227617;28;20063;-68
2023/10/21 12:16:29;;;;;;;11.77;5.47;;;;;;;;;;6240272;28;20070;-67
2023/10/21 12:19:50;;;;;;;8.38;5.60;;;;;;;;;;6232652;28;20054;-68
2023/10/21 12:26:22;;;;;;;10.50;5.47;;;;;;;;;;6202806;28;20382;-69
2023/10/21 12:30:12;;;;;;;10.45;5.15;;;;;;;;;;6232485;28;20054;-68
2023/10/21 12:37:07;;;;;;;8.15;4.82;;;;;;;;;;6277053;27;20598;-68
2023/10/21 12:40:30;;;;;;;13.03;4.80;;;;;;;;;;6250353;28;20062;-67
2023/10/21 12:43:35;;;;;;;13.07;4.60;;;;;;;;;;6243372;28;20060;-68
2023/10/21 12:46:38;;;;;;;7.45;4.30;;;;;;;;;;6237057;28;20129;-69
2023/10/21 12:49:43;;;;;;;9.65;4.75;;;;;;;;;;6248786;28;20046;-68
2023/10/21 12:52:47;;;;;;;7.70;4.57;;;;;;;;;;6235679;28;20049;-68
2023/10/21 12:55:49;;;;;;;9.40;5.18;;;;;;;;;;6254795;28;20045;-67
2023/10/21 12:58:50;;;;;;;7.80;4.50;;;;;;;;;;6263779;28;20093;-70
2023/10/21 13:01:52;;;;;;;14.02;5.07;;;;;;;;;;6264592;28;20056;-68
2023/10/21 13:04:53;;;;;;;7.57;4.90;;;;;;;;;;6257929;28;20131;-69
2023/10/21 13:07:56;;;;;;;10.63;4.93;;;;;;;;;;6265113;28;20072;-68
2023/10/21 13:10:58;;;;;;;7.88;4.88;;;;;;;;;;6263390;28;20053;-69
2023/10/21 13:14:00;;;;;;;9.60;5.47;;;;;;;;;;6263001;28;20049;-68
2023/10/21 13:17:07;;;;;;;8.57;5.20;;;;;;;;;;6258371;28;20508;-68
2023/10/21 13:20:16;;;;;;;8.18;5.65;;;;;;;;;;6261794;28;20065;-69
2023/10/21 13:23:19;;;;;;;6.70;4.90;;;;;;;;;;6261755;28;20101;-68
2023/10/21 13:26:20;;;;;;;10.93;6.03;;;;;;;;;;6263304;28;20260;-69
2023/10/21 13:29:22;;;;;;;10.90;6.35;;;;;;;;;;6259542;28;20351;-69
2023/10/21 13:32:24;;;;;;;9.95;5.65;;;;;;;;;;6261163;28;20106;-68
2023/10/21 13:35:25;;;;;;;9.52;5.90;;;;;;;;;;6260800;28;20053;-68
2023/10/21 13:38:30;;;;;;;10.98;6.70;;;;;;;;;;6262470;28;20062;-69
2023/10/21 13:41:31;;;;;;;12.27;6.75;;;;;;;;;;6260721;28;20057;-70
2023/10/21 13:44:34;;;;;;;9.23;6.25;;;;;;;;;;6258682;28;20130;-69
2023/10/21 13:47:36;;;;;;;11.50;6.70;;;;;;;;;;6243295;28;20068;-70
2023/10/21 13:50:38;;;;;;;10.98;6.95;;;;;;;;;;6242057;28;20052;-70
2023/10/21 13:53:41;;;;;;;12.48;7.45;;;;;;;;;;6246014;28;20131;-68
2023/10/21 13:56:42;;;;;;;16.60;8.43;;;;;;;;;;6230448;28;20088;-69
2023/10/21 13:59:47;;;;;;;12.55;7.47;;;;;;;;;;6219847;28;20065;-69
2023/10/21 14:02:49;;;;;;;11.70;8.00;;;;;;;;;;6217482;28;20054;-68
2023/10/21 14:05:52;;;;;;;11.20;7.15;;;;;;;;;;6221277;28;20238;-68
2023/10/21 14:08:55;;;;;;;;;;;;;;;;;;6227303;28;20062;-70
2023/10/21 14:11:57;;;;;;;13.50;7.80;;;;;;;;;;6224397;28;19918;-69
2023/10/21 14:15:05;;;;;;;13.40;7.25;;;;;;;;;;6224898;28;20117;-69
2023/10/21 14:18:09;;;;;;;11.43;7.28;;;;;;;;;;6227579;28;20100;-70
2023/10/21 14:21:12;;;;;;;12.25;7.00;;;;;;;;;;6224798;28;20073;-68
2023/10/21 14:24:15;;;;;;;13.75;7.30;;;;;;;;;;6222849;28;20076;-69
2023/10/21 14:27:19;;;;;;;19.33;8.23;;;;;;;;;;6223362;28;20066;-69
2023/10/21 14:30:20;;;;;;;15.68;8.48;;;;;;;;;;6224939;28;20250;-70
2023/10/21 14:33:24;;;;;;;13.93;8.00;;;;;;;;;;6223498;28;20054;-69
2023/10/21 14:36:26;;;;;;;11.52;8.00;;;;;;;;;;6225758;28;20052;-69
2023/10/21 14:39:29;;;;;;;14.80;8.18;;;;;;;;;;6222459;28;20057;-68
2023/10/21 14:42:30;;;;;;;15.43;8.32;;;;;;;;;;6224426;28;20326;-69
2023/10/21 14:45:33;;;;;;;11.60;8.20;;;;;;;;;;6222864;28;20342;-69
2023/10/21 14:48:35;;;;;;;16.98;8.65;;;;;;;;;;6219477;28;20381;-69
2023/10/21 14:51:36;;;;;;;11.50;8.23;;;;;;;;;;6217953;28;20062;-70
2023/10/21 14:54:39;;;;;;;12.25;7.43;;;;;;;;;;6229239;28;20072;-70
2023/10/21 14:57:42;;;;;;;13.50;6.85;;;;;;;;;;6215321;28;20057;-69
2023/10/21 15:00:44;;;;;;;12.43;7.60;;;;;;;;;;6226584;28;20341;-69
2023/10/21 15:03:45;;;;;;;12.45;7.80;;;;;;;;;;6221748;28;20208;-69
2023/10/21 15:06:47;;;;;;;12.57;7.78;;;;;;;;;;6227512;28;20057;-70
2023/10/21 15:09:50;;;;;;;12.50;7.35;;;;;;;;;;6229535;28;20050;-68
2023/10/21 15:12:53;;;;;;;12.25;7.68;;;;;;;;;;6243865;28;20322;-70
2023/10/21 15:16:00;;;;;;;8.52;5.30;;;;;;;;;;6218703;28;20046;-69
2023/10/21 15:19:03;;;;;;;9.55;4.72;;;;;;;;;;6228047;28;20065;-70
2023/10/21 15:22:05;;;;;;;5.88;4.13;;;;;;;;;;6219255;28;20062;-69
2023/10/21 15:25:10;;;;;;;9.50;4.80;;;;;;;;;;6214937;28;20282;-69
2023/10/21 15:28:12;;;;;;;7.95;3.97;;;;;;;;;;6219650;28;20058;-68
2023/10/21 15:31:13;;;;;;;6.43;3.70;;;;;;;;;;6224013;28;20314;-69
2023/10/21 15:34:15;;;;;;;7.35;4.15;;;;;;;;;;6219225;28;21704;-71
2023/10/21 15:37:18;;;;;;;9.07;3.97;;;;;;;;;;6227324;28;20081;-69
2023/10/21 15:40:26;;;;;;;8.95;4.03;;;;;;;;;;6228346;28;20045;-69
2023/10/21 15:43:28;;;;;;;6.78;4.10;;;;;;;;;;6228163;28;20288;-71
2023/10/21 15:46:29;;;;;;;9.95;4.00;;;;;;;;;;6219835;28;20054;-69
2023/10/21 15:49:31;;;;;;;8.10;3.45;;;;;;;;;;6228574;28;20054;-70
2023/10/21 15:52:33;;;;;;;10.20;3.70;;;;;;;;;;6221038;28;20057;-70
2023/10/21 15:55:36;;;;;;;8.60;4.25;;;;;;;;;;6227739;28;20334;-69
2023/10/21 15:58:38;;;;;;;8.30;3.80;;;;;;;;;;6221825;28;20061;-70
2023/10/21 16:01:40;;;;;;;9.98;4.85;;;;;;;;;;6217324;28;20242;-70
2023/10/21 16:04:41;;;;;;;7.07;3.53;;;;;;;;;;6215500;28;20046;-69
2023/10/21 16:07:43;;;;;;;6.05;3.67;;;;;;;;;;6217746;28;20078;-68
2023/10/21 16:10:46;;;;;;;8.40;3.92;;;;;;;;;;6214734;28;20054;-69
2023/10/21 16:13:48;;;;;;;7.32;4.10;;;;;;;;;;6230472;28;20058;-69
2023/10/21 16:16:49;;;;;;;7.15;3.97;;;;;;;;;;6219960;28;20208;-69
2023/10/21 16:19:51;;;;;;;7.97;3.92;;;;;;;;;;6223510;28;20275;-70
2023/10/21 16:22:53;;;;;;;8.75;4.03;;;;;;;;;;6219334;28;20764;-69
2023/10/21 16:25:56;;;;;;;7.68;4.20;;;;;;;;;;6218517;28;20062;-70
2023/10/21 16:28:58;;;;;;;7.85;3.90;;;;;;;;;;6217409;28;20303;-69
2023/10/21 16:32:00;;;;;;;8.20;4.30;;;;;;;;;;6216186;28;20054;-70
2023/10/21 16:35:01;;;;;;;9.25;4.57;;;;;;;;;;6218908;28;20215;-69
2023/10/21 16:38:03;;;;;;;8.48;4.30;;;;;;;;;;6226060;28;20059;-70
2023/10/21 16:41:08;;;;;;;8.73;4.90;;;;;;;;;;6217005;28;20054;-69
2023/10/21 16:44:10;;;;;;;9.57;4.72;;;;;;;;;;6224237;28;20064;-69
2023/10/21 16:47:12;;;;;;;14.15;6.13;;;;;;;;;;6218397;28;20053;-69
2023/10/21 16:50:14;;;;;;;9.32;4.60;;;;;;;;;;6213409;28;20046;-69
2023/10/21 16:53:15;;;;;;;10.25;5.50;;;;;;;;;;6217103;28;20050;-69
2023/10/21 16:56:18;;;;;;;8.70;4.57;;;;;;;;;;6227735;28;20054;-69
2023/10/21 16:59:20;;;;;;;9.57;3.97;;;;;;;;;;6216733;28;20053;-69
2023/10/21 17:02:22;;;;;;;9.25;4.90;;;;;;;;;;6215498;28;20368;-70
2023/10/21 17:05:24;;;;;;;7.55;4.18;;;;;;;;;;6216093;28;20097;-69
2023/10/21 17:08:26;;;;;;;6.72;4.63;;;;;;;;;;6216159;28;20262;-69
2023/10/21 17:11:29;;;;;;;10.70;4.80;;;;;;;;;;6221771;28;20061;-70
2023/10/21 17:14:31;;;;;;;8.20;4.95;;;;;;;;;;6225358;28;20397;-70
2023/10/21 17:17:33;;;;;;;10.70;5.38;;;;;;;;;;6218125;28;20090;-69
2023/10/21 17:20:35;;;;;;;9.18;4.70;;;;;;;;;;6224832;28;20065;-70
2023/10/21 17:23:36;;;;;;;10.05;4.80;;;;;;;;;;6221273;28;20101;-70
2023/10/21 17:26:40;;;;;;;10.93;4.80;;;;;;;;;;6221701;28;20339;-70
2023/10/21 17:29:41;;;;;;;9.90;4.80;;;;;;;;;;6220703;28;20052;-70
2023/10/21 17:32:44;;;;;;;13.02;5.13;;;;;;;;;;6221116;28;20180;-69
2023/10/21 17:35:46;;;;;;;10.88;5.20;;;;;;;;;;6219866;28;20077;-68
2023/10/21 17:38:47;;;;;;;10.35;4.85;;;;;;;;;;6220222;28;20054;-68
2023/10/21 17:41:50;;;;;;;8.95;5.22;;;;;;;;;;6220792;28;20045;-70
2023/10/21 17:44:52;;;;;;;11.68;6.05;;;;;;;;;;6221736;28;20058;-69
2023/10/21 17:47:54;;;;;;;12.98;5.63;;;;;;;;;;6219118;28;20081;-69
2023/10/21 17:50:56;;;;;;;8.73;5.82;;;;;;;;;;6228237;28;20054;-69
2023/10/21 17:53:58;;;;;;;14.25;6.40;;;;;;;;;;6223697;28;20075;-70
2023/10/21 17:57:01;;;;;;;13.00;7.30;;;;;;;;;;6233723;28;20057;-69
2023/10/21 18:00:03;;;;;;;21.67;10.57;;;;;;;;;;6224498;28;20108;-69
2023/10/21 18:03:06;;;;;;;28.52;12.45;;;;;;;;;;6218807;28;20066;-70
2023/10/21 18:06:08;;;;;;;23.38;10.77;;;;;;;;;;6224685;28;20068;-69
2023/10/21 18:09:10;;;;;;;17.85;10.10;;;;;;;;;;6225001;28;20246;-69
2023/10/21 18:12:13;;;;;;;15.32;9.07;;;;;;;;;;6220743;28;20066;-68
2023/10/21 18:15:15;;;;;;;13.68;7.68;;;;;;;;;;6219448;28;20057;-69
2023/10/21 18:18:17;;;;;;;17.92;9.77;;;;;;;;;;6226555;28;20096;-69
2023/10/21 18:21:19;;;;;;;16.30;9.18;;;;;;;;;;6224817;28;20136;-69
2023/10/21 18:24:21;;;;;;;18.67;9.60;;;;;;;;;;6220550;28;20054;-68
2023/10/21 18:27:24;;;;;;;16.00;9.73;;;;;;;;;;6220152;28;20339;-69
2023/10/21 18:30:26;;;;;;;18.08;9.70;;;;;;;;;;6221567;28;20073;-69
2023/10/21 18:33:29;;;;;;;24.92;9.30;;;;;;;;;;6218725;28;20270;-69
2023/10/21 18:36:31;;;;;;;13.88;8.00;;;;;;;;;;6220015;28;20109;-68